createdAt,value
2023-02-23T00:00:21.148Z,8.18
2023-02-23T00:01:27.288Z,7.56
2023-02-23T00:02:29.485Z,8.32
2023-02-23T00:03:32.687Z,7.78
2023-02-23T00:04:35.644Z,6.85
2023-02-23T00:05:39.081Z,8.47
2023-02-23T00:06:42.586Z,6.73
2023-02-23T00:07:46.350Z,7.21
2023-02-23T00:08:48.712Z,6.91
2023-02-23T00:09:52.950Z,7.04
2023-02-23T00:10:58.621Z,6.62
2023-02-23T00:12:07.541Z,6.00
2023-02-23T00:13:11.018Z,6.05
2023-02-23T00:14:14.080Z,7.13
2023-02-23T00:15:18.431Z,6.77
2023-02-23T00:16:23.816Z,5.64
2023-02-23T00:17:26.076Z,6.13
2023-02-23T00:18:30.207Z,6.21
2023-02-23T00:19:33.500Z,6.58
2023-02-23T00:20:36.872Z,7.00
2023-02-23T00:21:40.153Z,9.53
2023-02-23T00:22:44.658Z,8.42
2023-02-23T00:23:51.875Z,6.44
2023-02-23T00:24:57.481Z,7.00
2023-02-23T00:25:59.642Z,6.17
2023-02-23T00:27:06.204Z,5.85
2023-02-23T00:28:08.358Z,6.33
2023-02-23T00:29:17.396Z,5.18
2023-02-23T00:30:20.792Z,7.56
2023-02-23T00:31:25.973Z,6.84
2023-02-23T00:32:28.844Z,7.22
2023-02-23T00:33:32.319Z,10.51
2023-02-23T00:34:36.750Z,12.77
2023-02-23T00:35:40.385Z,12.24
2023-02-23T00:36:43.387Z,10.24
2023-02-23T00:37:49.434Z,10.49
2023-02-23T00:38:54.524Z,12.46
2023-02-23T00:39:57.969Z,12.34
2023-02-23T00:41:00.090Z,8.27
2023-02-23T00:42:03.704Z,5.19
2023-02-23T00:43:05.972Z,6.72
2023-02-23T00:44:09.144Z,7.12
2023-02-23T00:45:12.599Z,4.85
2023-02-23T00:46:17.612Z,10.07
2023-02-23T00:47:20.104Z,15.73
2023-02-23T00:48:23.242Z,9.12
2023-02-23T00:49:26.796Z,8.90
2023-02-23T00:50:29.628Z,12.56
2023-02-23T00:51:32.950Z,11.99
2023-02-23T00:52:35.144Z,9.25
2023-02-23T00:53:39.671Z,10.28
2023-02-23T00:54:42.388Z,9.64
2023-02-23T00:55:45.536Z,6.27
2023-02-23T00:56:48.448Z,12.62
2023-02-23T00:57:51.595Z,19.27
2023-02-23T00:58:54.635Z,13.24
2023-02-23T00:59:57.730Z,7.53
2023-02-23T01:01:00.162Z,6.29
2023-02-23T01:02:03.449Z,6.40
2023-02-23T01:03:05.570Z,10.31
2023-02-23T01:04:09.097Z,14.72
2023-02-23T01:05:11.701Z,11.04
2023-02-23T01:06:17.584Z,14.08
2023-02-23T01:07:19.718Z,16.84
2023-02-23T01:08:24.051Z,12.99
2023-02-23T01:09:28.432Z,7.23
2023-02-23T01:10:32.020Z,6.36
2023-02-23T01:11:34.386Z,6.58
2023-02-23T01:12:37.559Z,4.32
2023-02-23T01:13:42.079Z,4.17
2023-02-23T01:14:46.423Z,4.37
2023-02-23T01:15:49.816Z,10.17
2023-02-23T01:16:53.030Z,10.20
2023-02-23T01:17:55.236Z,16.86
2023-02-23T01:19:01.267Z,18.36
2023-02-23T01:20:13.172Z,16.47
2023-02-23T01:21:18.980Z,12.94
2023-02-23T01:22:21.854Z,13.37
2023-02-23T01:23:24.950Z,8.90
2023-02-23T01:24:29.047Z,8.25
2023-02-23T01:25:33.828Z,8.89
2023-02-23T01:26:38.261Z,11.40
2023-02-23T01:27:41.780Z,13.38
2023-02-23T01:28:43.928Z,11.00
2023-02-23T01:29:47.128Z,11.21
2023-02-23T01:30:49.413Z,12.33
2023-02-23T01:31:52.734Z,14.55
2023-02-23T01:32:54.966Z,8.79
2023-02-23T01:34:00.353Z,6.70
2023-02-23T01:35:04.438Z,5.61
2023-02-23T01:36:08.370Z,4.58
2023-02-23T01:37:10.520Z,12.81
2023-02-23T01:38:13.817Z,12.04
2023-02-23T01:39:18.410Z,7.63
2023-02-23T01:40:29.716Z,10.35
2023-02-23T01:41:33.024Z,14.08
2023-02-23T01:42:39.535Z,15.14
2023-02-23T01:43:56.705Z,17.43
2023-02-23T01:45:25.491Z,16.23
2023-02-23T01:46:28.236Z,15.12
2023-02-23T01:47:31.718Z,14.54
2023-02-23T01:48:39.200Z,15.15
2023-02-23T01:49:43.334Z,17.84
2023-02-23T01:50:52.559Z,20.17
2023-02-23T01:52:03.569Z,16.35
2023-02-23T01:53:06.189Z,13.96
2023-02-23T01:54:16.017Z,11.18
2023-02-23T01:55:24.577Z,13.91
2023-02-23T01:56:33.542Z,9.54
2023-02-23T01:57:36.971Z,7.84
2023-02-23T01:58:44.071Z,5.99
2023-02-23T01:59:49.070Z,14.60
2023-02-23T02:00:56.792Z,16.25
2023-02-23T02:01:58.903Z,11.19
2023-02-23T02:03:09.008Z,9.75
2023-02-23T02:04:16.512Z,7.60
2023-02-23T02:05:19.505Z,6.82
2023-02-23T02:06:28.791Z,8.85
2023-02-23T02:07:35.259Z,7.02
2023-02-23T02:08:44.958Z,15.98
2023-02-23T02:10:17.214Z,10.05
2023-02-23T02:11:36.224Z,9.66
2023-02-23T02:12:38.896Z,10.56
2023-02-23T02:13:42.260Z,10.73
2023-02-23T02:14:45.654Z,11.25
2023-02-23T02:16:18.569Z,11.64
2023-02-23T02:17:34.816Z,9.82
2023-02-23T02:18:55.703Z,9.18
2023-02-23T02:20:32.798Z,6.19
2023-02-23T02:22:17.538Z,11.56
2023-02-23T02:24:02.373Z,11.51
2023-02-23T02:25:35.447Z,14.15
2023-02-23T02:26:55.387Z,13.54
2023-02-23T02:28:30.777Z,15.25
2023-02-23T02:30:14.859Z,14.09
2023-02-23T02:31:59.470Z,13.90
2023-02-23T02:33:32.078Z,13.61
2023-02-23T02:35:10.949Z,13.85
2023-02-23T02:36:49.983Z,12.73
2023-02-23T02:38:10.863Z,12.22
2023-02-23T02:39:35.513Z,10.57
2023-02-23T02:40:53.660Z,9.86
2023-02-23T02:42:09.228Z,13.79
2023-02-23T02:43:21.251Z,12.21
2023-02-23T02:44:34.140Z,12.58
2023-02-23T02:45:48.784Z,11.80
2023-02-23T02:47:00.422Z,11.54
2023-02-23T02:48:14.144Z,11.05
2023-02-23T02:49:26.697Z,9.40
2023-02-23T02:50:40.337Z,9.75
2023-02-23T02:51:51.161Z,8.55
2023-02-23T02:52:59.542Z,9.04
2023-02-23T02:54:11.220Z,10.68
2023-02-23T02:55:18.836Z,9.76
2023-02-23T02:56:27.011Z,8.01
2023-02-23T02:57:31.091Z,6.33
2023-02-23T02:58:35.572Z,7.87
2023-02-23T03:00:03.173Z,11.20
2023-02-23T03:01:32.374Z,13.84
2023-02-23T03:02:56.675Z,16.05
2023-02-23T03:04:20.847Z,9.36
2023-02-23T03:05:48.080Z,6.77
2023-02-23T03:07:20.145Z,5.39
2023-02-23T03:08:49.832Z,5.22
2023-02-23T03:10:16.769Z,6.18
2023-02-23T03:11:37.956Z,4.65
2023-02-23T03:13:12.066Z,9.41
2023-02-23T03:14:47.097Z,10.11
2023-02-23T03:16:21.664Z,5.90
2023-02-23T03:17:55.276Z,6.93
2023-02-23T03:19:31.537Z,4.77
2023-02-23T03:21:04.332Z,5.21
2023-02-23T03:22:40.078Z,4.80
2023-02-23T03:24:12.594Z,4.41
2023-02-23T03:25:41.530Z,5.90
2023-02-23T03:27:08.575Z,5.47
2023-02-23T03:28:35.249Z,5.04
2023-02-23T03:30:04.992Z,4.72
2023-02-23T03:31:36.248Z,5.92
2023-02-23T03:33:08.170Z,5.56
2023-02-23T03:34:36.182Z,13.87
2023-02-23T03:36:10.651Z,10.63
2023-02-23T03:37:41.101Z,7.06
2023-02-23T03:39:08.739Z,5.87
2023-02-23T03:40:37.290Z,6.30
2023-02-23T03:42:01.754Z,5.79
2023-02-23T03:43:30.962Z,5.63
2023-02-23T03:44:56.189Z,5.98
2023-02-23T03:46:22.402Z,9.53
2023-02-23T03:47:50.248Z,7.22
2023-02-23T03:49:16.037Z,5.62
2023-02-23T03:50:45.264Z,5.25
2023-02-23T03:52:12.556Z,4.59
2023-02-23T03:53:41.063Z,6.16
2023-02-23T03:55:11.933Z,4.50
2023-02-23T03:56:38.048Z,5.83
2023-02-23T03:58:02.020Z,4.41
2023-02-23T03:59:26.735Z,6.92
2023-02-23T04:00:52.902Z,9.97
2023-02-23T04:02:15.203Z,7.69
2023-02-23T04:03:39.372Z,6.54
2023-02-23T04:05:03.668Z,5.35
2023-02-23T04:06:31.504Z,5.80
2023-02-23T04:07:55.556Z,5.83
2023-02-23T04:09:23.568Z,5.89
2023-02-23T04:10:47.812Z,6.15
2023-02-23T04:12:15.698Z,6.65
2023-02-23T04:13:24.395Z,4.83
2023-02-23T04:14:34.904Z,4.54
2023-02-23T04:15:40.741Z,5.24
2023-02-23T04:16:44.961Z,5.83
2023-02-23T04:17:48.535Z,9.60
2023-02-23T04:18:50.679Z,9.76
2023-02-23T04:19:55.917Z,9.37
2023-02-23T04:20:59.661Z,7.90
2023-02-23T04:22:02.787Z,6.73
2023-02-23T04:23:04.877Z,7.81
2023-02-23T04:24:11.516Z,9.29
2023-02-23T04:25:17.308Z,9.93
2023-02-23T04:26:20.719Z,9.18
2023-02-23T04:27:22.883Z,9.43
2023-02-23T04:28:28.068Z,8.62
2023-02-23T04:29:30.200Z,6.74
2023-02-23T04:30:33.525Z,6.44
2023-02-23T04:31:35.680Z,6.53
2023-02-23T04:32:39.761Z,6.49
2023-02-23T04:33:41.942Z,6.83
2023-02-23T04:34:45.698Z,5.84
2023-02-23T04:35:48.249Z,5.65
2023-02-23T04:36:51.724Z,6.01
2023-02-23T04:37:54.420Z,5.84
2023-02-23T04:38:57.724Z,5.51
2023-02-23T04:40:01.222Z,5.41
2023-02-23T04:41:04.353Z,5.79
2023-02-23T04:42:06.561Z,5.85
2023-02-23T04:43:11.535Z,5.27
2023-02-23T04:44:13.681Z,5.48
2023-02-23T04:45:16.950Z,5.57
2023-02-23T04:46:19.088Z,4.92
2023-02-23T04:47:22.459Z,6.51
2023-02-23T04:48:25.616Z,13.04
2023-02-23T04:49:28.689Z,7.06
2023-02-23T04:50:32.564Z,7.39
2023-02-23T04:51:37.344Z,10.82
2023-02-23T04:52:39.823Z,9.16
2023-02-23T04:53:44.126Z,7.38
2023-02-23T04:54:46.262Z,9.00
2023-02-23T04:55:52.942Z,10.61
2023-02-23T04:56:55.071Z,8.51
2023-02-23T04:58:00.338Z,6.53
2023-02-23T04:59:03.001Z,5.97
2023-02-23T05:00:07.589Z,5.28
2023-02-23T05:01:10.280Z,5.18
2023-02-23T05:02:13.521Z,6.06
2023-02-23T05:03:17.484Z,4.57
2023-02-23T05:04:19.595Z,5.16
2023-02-23T05:05:22.814Z,5.90
2023-02-23T05:06:24.953Z,4.95
2023-02-23T05:07:28.232Z,5.08
2023-02-23T05:08:30.397Z,4.86
2023-02-23T05:09:34.210Z,3.95
2023-02-23T05:10:39.836Z,6.55
2023-02-23T05:11:44.702Z,16.69
2023-02-23T05:12:46.979Z,14.42
2023-02-23T05:13:50.130Z,9.07
2023-02-23T05:14:52.224Z,6.85
2023-02-23T05:15:58.689Z,8.76
2023-02-23T05:17:01.032Z,6.89
2023-02-23T05:18:04.236Z,10.42
2023-02-23T05:19:06.425Z,12.14
2023-02-23T05:20:10.961Z,8.80
2023-02-23T05:21:13.582Z,6.69
2023-02-23T05:22:16.715Z,6.49
2023-02-23T05:23:19.305Z,6.18
2023-02-23T05:24:22.525Z,5.31
2023-02-23T05:25:24.798Z,4.77
2023-02-23T05:26:27.936Z,7.05
2023-02-23T05:27:32.542Z,5.77
2023-02-23T05:28:37.693Z,5.31
2023-02-23T05:29:40.351Z,7.24
2023-02-23T05:30:43.624Z,9.76
2023-02-23T05:31:46.189Z,7.03
2023-02-23T05:32:49.399Z,6.33
2023-02-23T05:33:51.605Z,5.59
2023-02-23T05:34:54.739Z,5.86
2023-02-23T05:35:58.244Z,5.54
2023-02-23T05:37:01.382Z,8.38
2023-02-23T05:38:03.581Z,9.30
2023-02-23T05:39:08.062Z,6.85
2023-02-23T05:40:11.522Z,5.57
2023-02-23T05:41:17.302Z,4.71
2023-02-23T05:42:19.811Z,4.74
2023-02-23T05:43:24.351Z,4.87
2023-02-23T05:44:26.648Z,4.66
2023-02-23T05:45:29.803Z,4.96
2023-02-23T05:46:32.064Z,3.59
2023-02-23T05:47:38.689Z,3.93
2023-02-23T05:48:41.104Z,6.87
2023-02-23T05:49:45.429Z,8.11
2023-02-23T05:50:47.593Z,6.36
2023-02-23T05:51:51.580Z,5.43
2023-02-23T05:52:53.826Z,5.47
2023-02-23T05:53:57.168Z,5.39
2023-02-23T05:54:59.375Z,5.29
2023-02-23T05:56:03.705Z,5.51
2023-02-23T05:57:05.839Z,6.05
2023-02-23T05:58:09.001Z,5.80
2023-02-23T05:59:13.381Z,6.22
2023-02-23T06:00:17.165Z,6.38
2023-02-23T06:01:20.355Z,6.67
2023-02-23T06:02:23.692Z,5.80
2023-02-23T06:03:26.012Z,9.44
2023-02-23T06:04:29.169Z,10.61
2023-02-23T06:05:31.394Z,7.20
2023-02-23T06:06:34.840Z,7.51
2023-02-23T06:07:37.526Z,7.42
2023-02-23T06:08:40.934Z,6.34
2023-02-23T06:09:44.609Z,5.89
2023-02-23T06:10:48.844Z,5.83
2023-02-23T06:11:51.574Z,5.25
2023-02-23T06:12:54.691Z,4.22
2023-02-23T06:13:59.491Z,5.78
2023-02-23T06:15:04.119Z,6.17
2023-02-23T06:16:08.439Z,7.71
2023-02-23T06:17:11.873Z,6.13
2023-02-23T06:18:13.964Z,5.57
2023-02-23T06:19:17.178Z,5.17
2023-02-23T06:20:19.458Z,6.46
2023-02-23T06:21:22.938Z,8.40
2023-02-23T06:22:25.127Z,11.01
2023-02-23T06:23:28.297Z,7.40
2023-02-23T06:24:30.455Z,7.91
2023-02-23T06:25:33.581Z,13.98
2023-02-23T06:26:35.761Z,15.89
2023-02-23T06:27:38.976Z,10.97
2023-02-23T06:28:42.064Z,9.53
2023-02-23T06:29:44.150Z,6.39
2023-02-23T06:30:49.099Z,6.75
2023-02-23T06:31:51.348Z,9.60
2023-02-23T06:32:54.524Z,7.01
2023-02-23T06:33:57.726Z,8.03
2023-02-23T06:34:59.907Z,7.38
2023-02-23T06:36:03.178Z,6.36
2023-02-23T06:37:05.972Z,5.87
2023-02-23T06:38:10.315Z,8.27
2023-02-23T06:39:13.457Z,8.74
2023-02-23T06:40:15.858Z,18.84
2023-02-23T06:41:19.245Z,15.08
2023-02-23T06:42:21.658Z,10.58
2023-02-23T06:43:24.793Z,9.81
2023-02-23T06:44:26.906Z,8.10
2023-02-23T06:45:30.275Z,7.17
2023-02-23T06:46:34.410Z,6.03
2023-02-23T06:47:37.549Z,12.76
2023-02-23T06:48:39.672Z,19.51
2023-02-23T06:49:42.812Z,13.77
2023-02-23T06:50:44.965Z,10.87
2023-02-23T06:51:48.045Z,20.28
2023-02-23T06:52:50.349Z,24.33
2023-02-23T06:53:54.078Z,18.59
2023-02-23T06:54:56.231Z,15.95
2023-02-23T06:55:59.303Z,11.47
2023-02-23T06:57:01.936Z,10.17
2023-02-23T06:58:07.119Z,13.18
2023-02-23T06:59:09.608Z,18.90
2023-02-23T07:00:15.090Z,21.08
2023-02-23T07:01:18.884Z,20.34
2023-02-23T07:02:22.930Z,21.60
2023-02-23T07:03:26.905Z,19.99
2023-02-23T07:04:29.054Z,17.49
2023-02-23T07:05:32.229Z,12.29
2023-02-23T07:06:34.363Z,8.98
2023-02-23T07:07:37.677Z,6.26
2023-02-23T07:08:39.951Z,14.29
2023-02-23T07:09:43.856Z,11.66
2023-02-23T07:10:47.652Z,10.47
2023-02-23T07:11:49.906Z,13.72
2023-02-23T07:12:54.986Z,10.85
2023-02-23T07:13:59.067Z,8.64
2023-02-23T07:15:01.218Z,10.47
2023-02-23T07:16:05.009Z,16.02
2023-02-23T07:17:07.651Z,19.24
2023-02-23T07:18:12.402Z,16.78
2023-02-23T07:19:14.647Z,13.03
2023-02-23T07:20:17.928Z,7.93
2023-02-23T07:21:20.550Z,6.58
2023-02-23T07:22:27.363Z,7.03
2023-02-23T07:23:30.518Z,5.62
2023-02-23T07:24:33.668Z,6.40
2023-02-23T07:25:36.842Z,6.21
2023-02-23T07:26:41.033Z,6.29
2023-02-23T07:27:45.412Z,6.13
2023-02-23T07:28:47.551Z,6.49
2023-02-23T07:29:50.680Z,7.78
2023-02-23T07:30:56.876Z,7.85
2023-02-23T07:31:59.084Z,6.03
2023-02-23T07:33:02.307Z,6.29
2023-02-23T07:34:05.939Z,6.71
2023-02-23T07:35:09.691Z,6.86
2023-02-23T07:36:12.540Z,5.84
2023-02-23T07:37:17.059Z,6.01
2023-02-23T07:38:20.188Z,6.73
2023-02-23T07:39:23.284Z,6.69
2023-02-23T07:40:27.041Z,7.39
2023-02-23T07:41:29.181Z,6.75
2023-02-23T07:42:32.476Z,6.84
2023-02-23T07:43:34.726Z,6.97
2023-02-23T07:44:38.138Z,6.79
2023-02-23T07:45:40.284Z,6.82
2023-02-23T07:46:43.410Z,5.92
2023-02-23T07:47:45.616Z,5.30
2023-02-23T07:48:48.756Z,6.46
2023-02-23T07:49:52.321Z,7.03
2023-02-23T07:50:55.577Z,6.70
2023-02-23T07:51:57.665Z,6.69
2023-02-23T07:53:00.906Z,6.62
2023-02-23T07:54:04.798Z,6.83
2023-02-23T07:55:10.180Z,7.55
2023-02-23T07:56:13.474Z,7.11
2023-02-23T07:57:16.594Z,7.41
2023-02-23T07:58:18.741Z,7.59
2023-02-23T07:59:22.208Z,7.49
2023-02-23T08:00:25.057Z,7.33
2023-02-23T08:01:28.272Z,6.80
2023-02-23T08:02:32.190Z,7.24
2023-02-23T08:03:35.328Z,7.49
2023-02-23T08:04:37.524Z,7.95
2023-02-23T08:05:42.030Z,7.81
2023-02-23T08:06:45.236Z,11.09
2023-02-23T08:07:47.369Z,12.70
2023-02-23T08:08:50.717Z,18.07
2023-02-23T08:09:53.589Z,16.50
2023-02-23T08:11:01.741Z,21.66
2023-02-23T08:12:04.712Z,22.29
2023-02-23T08:13:07.946Z,18.59
2023-02-23T08:14:10.631Z,11.65
2023-02-23T08:15:13.999Z,21.62
2023-02-23T08:16:16.463Z,22.79
2023-02-23T08:17:19.652Z,14.36
2023-02-23T08:18:21.944Z,10.71
2023-02-23T08:19:25.309Z,8.45
2023-02-23T08:20:28.746Z,8.60
2023-02-23T08:21:32.828Z,9.26
2023-02-23T08:22:48.546Z,8.11
2023-02-23T08:23:52.716Z,7.46
2023-02-23T08:24:55.867Z,14.42
2023-02-23T08:25:59.647Z,17.35
2023-02-23T08:27:04.224Z,14.35
2023-02-23T08:28:06.898Z,11.33
2023-02-23T08:29:10.118Z,14.97
2023-02-23T08:30:14.177Z,22.16
2023-02-23T08:31:19.394Z,13.02
2023-02-23T08:32:22.581Z,9.71
2023-02-23T08:33:26.018Z,10.11
2023-02-23T08:34:29.236Z,10.78
2023-02-23T08:35:31.322Z,11.92
2023-02-23T08:36:35.748Z,10.57
2023-02-23T08:37:38.030Z,9.49
2023-02-23T08:38:41.126Z,23.59
2023-02-23T08:39:44.578Z,23.62
2023-02-23T08:40:47.043Z,27.57
2023-02-23T08:41:50.120Z,27.71
2023-02-23T08:42:52.231Z,26.10
2023-02-23T08:43:55.853Z,23.56
2023-02-23T08:44:59.142Z,19.61
2023-02-23T08:46:02.270Z,15.98
2023-02-23T08:47:04.596Z,15.90
2023-02-23T08:48:08.739Z,24.50
2023-02-23T08:49:11.475Z,15.55
2023-02-23T08:50:15.387Z,20.62
2023-02-23T08:51:17.696Z,16.10
2023-02-23T08:52:22.597Z,12.87
2023-02-23T08:53:27.177Z,14.82
2023-02-23T08:54:30.545Z,18.07
2023-02-23T08:55:35.415Z,18.32
2023-02-23T08:56:38.572Z,19.63
2023-02-23T08:57:41.718Z,19.75
2023-02-23T08:58:45.136Z,12.00
2023-02-23T08:59:47.551Z,9.60
2023-02-23T09:00:50.886Z,18.95
2023-02-23T09:01:53.246Z,11.51
2023-02-23T09:02:56.387Z,14.14
2023-02-23T09:04:00.147Z,11.46
2023-02-23T09:05:02.358Z,12.06
2023-02-23T09:06:10.881Z,22.75
2023-02-23T09:07:16.708Z,20.64
2023-02-23T09:08:21.842Z,17.31
2023-02-23T09:09:25.007Z,20.16
2023-02-23T09:10:29.093Z,17.81
2023-02-23T09:11:32.210Z,19.54
2023-02-23T09:12:34.338Z,14.97
2023-02-23T09:13:37.511Z,18.65
2023-02-23T09:14:40.356Z,26.02
2023-02-23T09:15:44.185Z,26.46
2023-02-23T09:16:47.384Z,21.84
2023-02-23T09:17:49.680Z,24.32
2023-02-23T09:18:53.004Z,17.24
2023-02-23T09:19:55.111Z,19.57
2023-02-23T09:20:59.535Z,18.18
2023-02-23T09:22:02.676Z,19.05
2023-02-23T09:23:04.821Z,19.20
2023-02-23T09:24:09.546Z,20.94
2023-02-23T09:25:12.681Z,19.86
2023-02-23T09:26:18.067Z,18.32
2023-02-23T09:27:20.439Z,22.87
2023-02-23T09:28:23.611Z,22.67
2023-02-23T09:29:26.758Z,19.20
2023-02-23T09:30:28.967Z,26.53
2023-02-23T09:31:32.124Z,21.18
2023-02-23T09:32:34.541Z,21.23
2023-02-23T09:33:38.429Z,17.76
2023-02-23T09:34:40.525Z,15.92
2023-02-23T09:35:43.654Z,18.86
2023-02-23T09:36:45.870Z,20.07
2023-02-23T09:37:51.181Z,24.30
2023-02-23T09:38:57.695Z,20.41
2023-02-23T09:40:02.174Z,26.51
2023-02-23T09:41:38.002Z,26.59
2023-02-23T09:42:53.223Z,23.33
2023-02-23T09:44:02.667Z,22.72
2023-02-23T09:45:17.415Z,20.29
2023-02-23T09:46:34.767Z,16.22
2023-02-23T09:47:50.737Z,15.85
2023-02-23T09:48:57.239Z,16.87
2023-02-23T09:50:05.515Z,26.84
2023-02-23T09:51:16.324Z,19.66
2023-02-23T09:52:25.136Z,23.80
2023-02-23T09:53:38.487Z,21.41
2023-02-23T09:54:40.739Z,24.55
2023-02-23T09:55:46.192Z,23.26
2023-02-23T09:56:51.081Z,28.90
2023-02-23T09:57:57.904Z,24.43
2023-02-23T09:59:01.934Z,21.73
2023-02-23T10:00:12.160Z,23.63
2023-02-23T10:01:42.330Z,19.26
2023-02-23T10:03:20.444Z,20.61
2023-02-23T10:04:28.224Z,27.52
2023-02-23T10:05:38.378Z,23.78
2023-02-23T10:06:46.265Z,29.11
2023-02-23T10:07:56.525Z,27.77
2023-02-23T10:09:14.569Z,26.95
2023-02-23T10:10:28.014Z,18.58
2023-02-23T10:11:42.042Z,25.38
2023-02-23T10:13:00.227Z,24.23
2023-02-23T10:14:20.752Z,20.63
2023-02-23T10:15:33.534Z,19.40
2023-02-23T10:16:50.815Z,21.12
2023-02-23T10:18:06.504Z,17.52
2023-02-23T10:19:22.794Z,22.36
2023-02-23T10:20:35.357Z,21.55
2023-02-23T10:21:41.505Z,21.36
2023-02-23T10:22:47.580Z,21.22
2023-02-23T10:23:56.103Z,18.60
2023-02-23T10:25:06.426Z,16.82
2023-02-23T10:26:18.490Z,20.61
2023-02-23T10:27:30.291Z,27.02
2023-02-23T10:28:37.166Z,29.53
2023-02-23T10:29:43.980Z,26.62
2023-02-23T10:30:48.138Z,20.49
2023-02-23T10:31:54.299Z,23.10
2023-02-23T10:33:06.031Z,20.02
2023-02-23T10:34:15.625Z,18.46
2023-02-23T10:35:22.372Z,21.82
2023-02-23T10:36:35.811Z,20.93
2023-02-23T10:37:39.524Z,23.52
2023-02-23T10:38:41.621Z,22.31
2023-02-23T10:39:44.720Z,19.70
2023-02-23T10:40:54.808Z,17.62
2023-02-23T10:42:01.383Z,21.27
2023-02-23T10:43:05.988Z,20.77
2023-02-23T10:44:19.500Z,15.24
2023-02-23T10:45:25.730Z,17.15
2023-02-23T10:46:38.688Z,19.10
2023-02-23T10:47:43.133Z,20.15
2023-02-23T10:48:49.797Z,24.11
2023-02-23T10:49:54.389Z,26.04
2023-02-23T10:51:03.050Z,20.59
2023-02-23T10:52:07.498Z,21.68
2023-02-23T10:53:17.132Z,17.77
2023-02-23T10:54:44.168Z,18.66
2023-02-23T10:55:48.726Z,16.61
2023-02-23T10:56:50.930Z,17.77
2023-02-23T10:58:08.907Z,23.28
2023-02-23T10:59:21.625Z,20.09
2023-02-23T11:00:30.648Z,19.67
2023-02-23T11:01:41.914Z,20.20
2023-02-23T11:02:48.661Z,16.07
2023-02-23T11:04:05.499Z,25.95
2023-02-23T11:05:31.834Z,18.51
2023-02-23T11:06:39.700Z,22.39
2023-02-23T11:07:43.248Z,18.31
2023-02-23T11:08:46.380Z,20.70
2023-02-23T11:09:49.647Z,23.50
2023-02-23T11:11:20.298Z,20.80
2023-02-23T11:12:26.407Z,18.19
2023-02-23T11:13:36.782Z,17.36
2023-02-23T11:14:40.795Z,18.36
2023-02-23T11:15:50.586Z,19.31
2023-02-23T11:16:55.985Z,19.03
2023-02-23T11:18:00.539Z,19.66
2023-02-23T11:19:06.425Z,21.29
2023-02-23T11:20:23.006Z,19.30
2023-02-23T11:21:33.375Z,15.39
2023-02-23T11:22:41.271Z,18.43
2023-02-23T11:23:45.096Z,20.11
2023-02-23T11:24:48.434Z,16.49
2023-02-23T11:25:55.584Z,14.30
2023-02-23T11:27:03.597Z,14.03
2023-02-23T11:28:05.984Z,14.18
2023-02-23T11:29:20.858Z,15.33
2023-02-23T11:30:29.552Z,18.71
2023-02-23T11:31:36.349Z,17.96
2023-02-23T11:32:43.082Z,17.16
2023-02-23T11:33:48.278Z,14.93
2023-02-23T11:35:13.759Z,15.00
2023-02-23T11:36:27.536Z,16.72
2023-02-23T11:37:32.430Z,16.87
2023-02-23T11:38:35.883Z,14.36
2023-02-23T11:39:51.248Z,13.49
2023-02-23T11:41:01.535Z,11.03
2023-02-23T11:42:20.396Z,15.56
2023-02-23T11:43:22.544Z,14.60
2023-02-23T11:44:27.067Z,14.91
2023-02-23T11:45:38.931Z,14.99
2023-02-23T11:46:45.830Z,14.99
2023-02-23T11:47:52.417Z,11.82
2023-02-23T11:49:00.476Z,11.34
2023-02-23T11:50:06.340Z,12.23
2023-02-23T11:51:09.742Z,10.40
2023-02-23T11:52:18.783Z,11.56
2023-02-23T11:53:29.770Z,9.09
2023-02-23T11:54:34.937Z,10.50
2023-02-23T11:55:39.276Z,8.11
2023-02-23T11:56:47.927Z,11.09
2023-02-23T11:57:52.189Z,10.19
2023-02-23T11:58:59.218Z,9.89
2023-02-23T12:00:11.918Z,12.40
2023-02-23T12:01:17.634Z,9.06
2023-02-23T12:02:25.515Z,8.18
2023-02-23T12:03:32.967Z,8.68
2023-02-23T12:04:38.780Z,8.81
2023-02-23T12:05:42.314Z,8.19
2023-02-23T12:06:45.584Z,8.48
2023-02-23T12:07:56.672Z,11.01
2023-02-23T12:09:13.119Z,10.19
2023-02-23T12:10:24.402Z,10.15
2023-02-23T12:11:33.598Z,8.93
2023-02-23T12:12:48.592Z,9.04
2023-02-23T12:14:00.384Z,11.19
2023-02-23T12:15:16.666Z,10.28
2023-02-23T12:16:27.599Z,9.88
2023-02-23T12:17:37.030Z,8.39
2023-02-23T12:18:49.975Z,10.40
2023-02-23T12:20:00.268Z,8.48
2023-02-23T12:21:16.654Z,6.99
2023-02-23T12:22:24.054Z,8.45
2023-02-23T12:23:33.279Z,7.60
2023-02-23T12:24:45.645Z,10.01
2023-02-23T12:25:56.132Z,8.91
2023-02-23T12:27:06.172Z,9.38
2023-02-23T12:28:19.905Z,11.05
2023-02-23T12:29:34.589Z,8.94
2023-02-23T12:30:47.625Z,9.16
2023-02-23T12:31:58.126Z,9.09
2023-02-23T12:33:07.677Z,7.36
2023-02-23T12:34:18.395Z,7.32
2023-02-23T12:35:29.579Z,7.87
2023-02-23T12:36:42.651Z,7.11
2023-02-23T12:37:51.132Z,8.86
2023-02-23T12:39:02.038Z,6.86
2023-02-23T12:40:16.373Z,8.19
2023-02-23T12:41:31.291Z,8.08
2023-02-23T12:42:43.864Z,8.16
2023-02-23T12:43:54.088Z,7.78
2023-02-23T12:45:01.829Z,12.06
2023-02-23T12:46:14.421Z,13.45
2023-02-23T12:47:29.522Z,9.28
2023-02-23T12:48:43.127Z,8.51
2023-02-23T12:49:53.518Z,7.18
2023-02-23T12:51:00.127Z,7.54
2023-02-23T12:52:08.649Z,8.88
2023-02-23T12:53:22.105Z,9.32
2023-02-23T12:54:25.871Z,8.93
2023-02-23T12:55:41.926Z,8.11
2023-02-23T12:56:57.990Z,6.64
2023-02-23T12:58:17.294Z,8.16
2023-02-23T12:59:42.387Z,8.37
2023-02-23T13:00:58.214Z,7.38
2023-02-23T13:02:09.344Z,7.11
2023-02-23T13:03:54.032Z,7.72
2023-02-23T13:05:13.189Z,7.16
2023-02-23T13:06:30.387Z,7.12
2023-02-23T13:07:46.269Z,7.22
2023-02-23T13:09:09.488Z,7.48
2023-02-23T13:10:26.831Z,8.02
2023-02-23T13:11:58.480Z,7.74
2023-02-23T13:13:19.121Z,7.13
2023-02-23T13:14:31.940Z,6.82
2023-02-23T13:15:49.384Z,7.04
2023-02-23T13:16:57.540Z,7.34
2023-02-23T13:18:13.492Z,7.08
2023-02-23T13:19:24.103Z,7.61
2023-02-23T13:20:36.240Z,6.42
2023-02-23T13:21:47.272Z,7.53
2023-02-23T13:22:58.608Z,7.24
2023-02-23T13:24:10.980Z,6.69
2023-02-23T13:25:29.263Z,7.09
2023-02-23T13:26:40.612Z,6.96
2023-02-23T13:27:53.757Z,7.49
2023-02-23T13:29:03.452Z,5.91
2023-02-23T13:30:12.568Z,5.48
2023-02-23T13:31:24.629Z,6.34
2023-02-23T13:32:32.083Z,4.93
2023-02-23T13:33:43.950Z,6.09
2023-02-23T13:34:54.667Z,6.03
2023-02-23T13:35:57.704Z,6.07
2023-02-23T13:37:06.969Z,5.82
2023-02-23T13:38:20.500Z,4.65
2023-02-23T13:39:47.738Z,6.70
2023-02-23T13:41:00.623Z,5.62
2023-02-23T13:42:35.906Z,4.96
2023-02-23T13:43:49.217Z,5.56
2023-02-23T13:45:03.570Z,5.53
2023-02-23T13:46:27.540Z,5.60
2023-02-23T13:47:46.536Z,5.24
2023-02-23T13:49:00.502Z,5.93
2023-02-23T13:50:18.118Z,5.45
2023-02-23T13:51:39.301Z,5.72
2023-02-23T13:52:43.927Z,5.92
2023-02-23T13:53:59.121Z,5.85
2023-02-23T13:55:04.231Z,5.18
2023-02-23T13:56:09.647Z,5.15
2023-02-23T13:57:16.671Z,4.53
2023-02-23T13:58:27.127Z,4.68
2023-02-23T13:59:33.423Z,4.37
2023-02-23T14:00:36.351Z,4.22
2023-02-23T14:01:44.234Z,4.00
2023-02-23T14:02:47.366Z,4.39
2023-02-23T14:03:57.326Z,4.57
2023-02-23T14:05:03.694Z,4.31
2023-02-23T14:06:07.863Z,4.03
2023-02-23T14:07:25.026Z,4.96
2023-02-23T14:08:34.860Z,3.97
2023-02-23T14:09:42.527Z,4.23
2023-02-23T14:10:45.296Z,4.12
2023-02-23T14:11:51.952Z,5.07
2023-02-23T14:13:06.670Z,4.19
2023-02-23T14:14:17.020Z,4.98
2023-02-23T14:15:43.792Z,5.11
2023-02-23T14:17:33.395Z,3.79
2023-02-23T14:18:50.620Z,4.27
2023-02-23T14:20:28.017Z,4.16
2023-02-23T14:21:38.784Z,3.20
2023-02-23T14:23:30.008Z,4.12
2023-02-23T14:24:33.223Z,5.20
2023-02-23T14:25:52.542Z,3.87
2023-02-23T14:27:41.117Z,2.42
2023-02-23T14:28:49.135Z,3.61
2023-02-23T14:30:27.057Z,4.68
2023-02-23T14:31:32.237Z,3.78
2023-02-23T14:32:40.901Z,3.75
2023-02-23T14:34:03.331Z,4.06
2023-02-23T14:35:50.253Z,4.79
2023-02-23T14:36:56.504Z,4.12
2023-02-23T14:38:02.803Z,4.06
2023-02-23T14:39:18.906Z,5.49
2023-02-23T14:40:30.472Z,4.52
2023-02-23T14:41:44.280Z,4.66
2023-02-23T14:42:51.957Z,4.01
2023-02-23T14:44:12.350Z,3.64
2023-02-23T14:45:26.992Z,3.52
2023-02-23T14:46:29.489Z,2.56
2023-02-23T14:47:47.278Z,2.94
2023-02-23T14:49:02.561Z,2.40
2023-02-23T14:50:16.098Z,2.42
2023-02-23T14:51:25.826Z,2.22
2023-02-23T14:52:36.128Z,3.68
2023-02-23T14:53:39.938Z,4.14
2023-02-23T14:54:43.117Z,4.34
2023-02-23T14:55:45.650Z,4.73
2023-02-23T14:56:51.240Z,3.38
2023-02-23T14:57:54.607Z,2.98
2023-02-23T14:58:59.253Z,2.99
2023-02-23T15:00:09.104Z,2.28
2023-02-23T15:01:12.218Z,1.93
2023-02-23T15:02:20.230Z,2.62
2023-02-23T15:03:23.689Z,3.48
2023-02-23T15:04:29.925Z,4.27